sensor_id;sensor_type;location;lat;lon;timestamp;P1;durP1;ratioP1;P2;durP2;ratioP2
57025;SDS011;43961;52.940;6.834;2023-06-10T00:00:19;0.95;;;0.68;;
57025;SDS011;43961;52.940;6.834;2023-06-10T00:02:45;1.33;;;1.23;;
57025;SDS011;43961;52.940;6.834;2023-06-10T00:05:11;0.50;;;0.50;;
57025;SDS011;43961;52.940;6.834;2023-06-10T00:07:36;12.73;;;2.97;;
57025;SDS011;43961;52.940;6.834;2023-06-10T00:10:06;2.00;;;1.77;;
57025;SDS011;43961;52.940;6.834;2023-06-10T00:12:32;1.27;;;1.23;;
57025;SDS011;43961;52.940;6.834;2023-06-10T00:15:02;1.38;;;1.33;;
57025;SDS011;43961;52.940;6.834;2023-06-10T00:17:29;8.75;;;2.22;;
57025;SDS011;43961;52.940;6.834;2023-06-10T00:19:55;0.68;;;0.68;;
57025;SDS011;43961;52.940;6.834;2023-06-10T00:22:22;5.32;;;1.40;;
57025;SDS011;43961;52.940;6.834;2023-06-10T00:24:49;14.45;;;1.27;;
57025;SDS011;43961;52.940;6.834;2023-06-10T00:27:16;0.60;;;0.60;;
57025;SDS011;43961;52.940;6.834;2023-06-10T00:29:41;1.70;;;1.60;;
57025;SDS011;43961;52.940;6.834;2023-06-10T00:32:07;0.60;;;0.60;;
57025;SDS011;43961;52.940;6.834;2023-06-10T00:34:33;0.40;;;0.40;;
57025;SDS011;43961;52.940;6.834;2023-06-10T00:36:58;0.65;;;0.65;;
57025;SDS011;43961;52.940;6.834;2023-06-10T00:39:24;0.95;;;0.80;;
57025;SDS011;43961;52.940;6.834;2023-06-10T00:41:50;1.15;;;1.15;;
57025;SDS011;43961;52.940;6.834;2023-06-10T00:44:15;1.60;;;1.50;;
57025;SDS011;43961;52.940;6.834;2023-06-10T00:46:41;0.80;;;0.80;;
57025;SDS011;43961;52.940;6.834;2023-06-10T00:49:07;1.25;;;0.57;;
57025;SDS011;43961;52.940;6.834;2023-06-10T00:51:33;2.65;;;1.17;;
57025;SDS011;43961;52.940;6.834;2023-06-10T00:54:00;1.83;;;1.73;;
57025;SDS011;43961;52.940;6.834;2023-06-10T00:56:26;0.98;;;0.90;;
57025;SDS011;43961;52.940;6.834;2023-06-10T00:58:53;1.47;;;1.37;;
57025;SDS011;43961;52.940;6.834;2023-06-10T01:01:19;2.00;;;0.90;;
57025;SDS011;43961;52.940;6.834;2023-06-10T01:03:45;0.60;;;0.60;;
57025;SDS011;43961;52.940;6.834;2023-06-10T01:06:18;2.05;;;1.65;;
57025;SDS011;43961;52.940;6.834;2023-06-10T01:09:02;2.05;;;1.95;;
57025;SDS011;43961;52.940;6.834;2023-06-10T01:11:36;1.83;;;1.70;;
57025;SDS011;43961;52.940;6.834;2023-06-10T01:14:09;0.73;;;0.73;;
57025;SDS011;43961;52.940;6.834;2023-06-10T01:16:34;1.20;;;0.85;;
57025;SDS011;43961;52.940;6.834;2023-06-10T01:19:02;0.45;;;0.45;;
57025;SDS011;43961;52.940;6.834;2023-06-10T01:21:28;1.50;;;1.30;;
57025;SDS011;43961;52.940;6.834;2023-06-10T01:23:54;3.40;;;1.75;;
57025;SDS011;43961;52.940;6.834;2023-06-10T01:26:22;2.15;;;1.90;;
57025;SDS011;43961;52.940;6.834;2023-06-10T01:31:33;1.38;;;1.27;;
57025;SDS011;43961;52.940;6.834;2023-06-10T01:34:14;3.90;;;3.00;;
57025;SDS011;43961;52.940;6.834;2023-06-10T01:36:44;0.60;;;0.60;;
57025;SDS011;43961;52.940;6.834;2023-06-10T01:39:12;2.10;;;1.30;;
57025;SDS011;43961;52.940;6.834;2023-06-10T01:41:41;1.40;;;1.30;;
57025;SDS011;43961;52.940;6.834;2023-06-10T01:44:07;2.80;;;2.55;;
57025;SDS011;43961;52.940;6.834;2023-06-10T01:46:33;1.85;;;1.75;;
57025;SDS011;43961;52.940;6.834;2023-06-10T01:48:59;3.30;;;2.72;;
57025;SDS011;43961;52.940;6.834;2023-06-10T01:51:25;1.98;;;1.88;;
57025;SDS011;43961;52.940;6.834;2023-06-10T01:53:50;1.95;;;1.85;;
57025;SDS011;43961;52.940;6.834;2023-06-10T01:56:16;1.90;;;1.80;;
57025;SDS011;43961;52.940;6.834;2023-06-10T01:58:44;2.47;;;2.33;;
57025;SDS011;43961;52.940;6.834;2023-06-10T02:01:10;2.17;;;2.03;;
57025;SDS011;43961;52.940;6.834;2023-06-10T02:03:36;2.42;;;2.22;;
57025;SDS011;43961;52.940;6.834;2023-06-10T02:06:02;5.20;;;2.00;;
57025;SDS011;43961;52.940;6.834;2023-06-10T02:08:27;3.08;;;1.67;;
57025;SDS011;43961;52.940;6.834;2023-06-10T02:10:53;6.07;;;2.78;;
57025;SDS011;43961;52.940;6.834;2023-06-10T02:13:19;2.85;;;2.33;;
57025;SDS011;43961;52.940;6.834;2023-06-10T02:15:45;9.50;;;3.72;;
57025;SDS011;43961;52.940;6.834;2023-06-10T02:18:10;2.90;;;2.22;;
57025;SDS011;43961;52.940;6.834;2023-06-10T02:20:37;3.50;;;2.35;;
57025;SDS011;43961;52.940;6.834;2023-06-10T02:23:03;2.78;;;2.67;;
57025;SDS011;43961;52.940;6.834;2023-06-10T02:25:28;2.92;;;1.63;;
57025;SDS011;43961;52.940;6.834;2023-06-10T02:27:54;3.28;;;1.30;;
57025;SDS011;43961;52.940;6.834;2023-06-10T02:30:20;2.17;;;1.98;;
57025;SDS011;43961;52.940;6.834;2023-06-10T02:32:46;2.25;;;1.98;;
57025;SDS011;43961;52.940;6.834;2023-06-10T02:35:15;2.20;;;2.00;;
57025;SDS011;43961;52.940;6.834;2023-06-10T02:37:42;1.65;;;1.30;;
57025;SDS011;43961;52.940;6.834;2023-06-10T02:40:08;5.63;;;3.78;;
57025;SDS011;43961;52.940;6.834;2023-06-10T02:42:35;2.13;;;1.45;;
57025;SDS011;43961;52.940;6.834;2023-06-10T02:45:01;2.28;;;2.15;;
57025;SDS011;43961;52.940;6.834;2023-06-10T02:47:27;2.25;;;2.05;;
57025;SDS011;43961;52.940;6.834;2023-06-10T02:49:52;1.33;;;1.30;;
57025;SDS011;43961;52.940;6.834;2023-06-10T02:52:18;5.95;;;1.55;;
57025;SDS011;43961;52.940;6.834;2023-06-10T02:54:43;2.97;;;1.40;;
57025;SDS011;43961;52.940;6.834;2023-06-10T02:57:10;1.60;;;1.55;;
57025;SDS011;43961;52.940;6.834;2023-06-10T02:59:36;2.08;;;1.52;;
57025;SDS011;43961;52.940;6.834;2023-06-10T03:02:02;0.90;;;0.90;;
57025;SDS011;43961;52.940;6.834;2023-06-10T03:04:27;5.70;;;1.60;;
57025;SDS011;43961;52.940;6.834;2023-06-10T03:06:54;3.60;;;2.72;;
57025;SDS011;43961;52.940;6.834;2023-06-10T03:09:20;2.15;;;1.98;;
57025;SDS011;43961;52.940;6.834;2023-06-10T03:11:45;2.30;;;1.90;;
57025;SDS011;43961;52.940;6.834;2023-06-10T03:14:11;1.75;;;1.65;;
57025;SDS011;43961;52.940;6.834;2023-06-10T03:16:37;1.17;;;1.10;;
57025;SDS011;43961;52.940;6.834;2023-06-10T03:19:06;1.23;;;1.13;;
57025;SDS011;43961;52.940;6.834;2023-06-10T03:21:33;1.30;;;1.20;;
57025;SDS011;43961;52.940;6.834;2023-06-10T03:24:02;1.50;;;1.40;;
57025;SDS011;43961;52.940;6.834;2023-06-10T03:26:28;2.33;;;1.67;;
57025;SDS011;43961;52.940;6.834;2023-06-10T03:28:54;1.85;;;0.80;;
57025;SDS011;43961;52.940;6.834;2023-06-10T03:31:20;4.40;;;1.08;;
57025;SDS011;43961;52.940;6.834;2023-06-10T03:33:45;1.38;;;1.33;;
57025;SDS011;43961;52.940;6.834;2023-06-10T03:36:11;0.88;;;0.82;;
57025;SDS011;43961;52.940;6.834;2023-06-10T03:38:37;1.40;;;1.27;;
57025;SDS011;43961;52.940;6.834;2023-06-10T03:41:03;2.42;;;2.22;;
57025;SDS011;43961;52.940;6.834;2023-06-10T03:43:28;4.43;;;1.95;;
57025;SDS011;43961;52.940;6.834;2023-06-10T03:45:54;1.58;;;1.48;;
57025;SDS011;43961;52.940;6.834;2023-06-10T03:48:19;2.72;;;2.53;;
57025;SDS011;43961;52.940;6.834;2023-06-10T03:50:45;2.78;;;2.53;;
57025;SDS011;43961;52.940;6.834;2023-06-10T03:53:12;4.90;;;3.42;;
57025;SDS011;43961;52.940;6.834;2023-06-10T03:55:38;0.90;;;0.90;;
57025;SDS011;43961;52.940;6.834;2023-06-10T03:58:03;10.13;;;2.42;;
57025;SDS011;43961;52.940;6.834;2023-06-10T04:00:29;2.10;;;1.88;;
57025;SDS011;43961;52.940;6.834;2023-06-10T04:02:55;2.00;;;1.90;;
57025;SDS011;43961;52.940;6.834;2023-06-10T04:05:23;2.25;;;1.27;;
57025;SDS011;43961;52.940;6.834;2023-06-10T04:07:48;3.72;;;3.50;;
57025;SDS011;43961;52.940;6.834;2023-06-10T04:10:14;3.13;;;2.70;;
57025;SDS011;43961;52.940;6.834;2023-06-10T04:12:40;2.55;;;2.42;;
57025;SDS011;43961;52.940;6.834;2023-06-10T04:15:07;2.28;;;2.10;;
57025;SDS011;43961;52.940;6.834;2023-06-10T04:17:33;2.53;;;2.33;;
57025;SDS011;43961;52.940;6.834;2023-06-10T04:19:58;3.30;;;3.00;;
57025;SDS011;43961;52.940;6.834;2023-06-10T04:22:25;5.85;;;4.20;;
57025;SDS011;43961;52.940;6.834;2023-06-10T04:24:51;4.88;;;3.83;;
57025;SDS011;43961;52.940;6.834;2023-06-10T04:27:17;2.70;;;2.13;;
57025;SDS011;43961;52.940;6.834;2023-06-10T04:29:43;2.60;;;2.42;;
57025;SDS011;43961;52.940;6.834;2023-06-10T04:32:08;3.50;;;3.20;;
57025;SDS011;43961;52.940;6.834;2023-06-10T04:34:34;5.93;;;3.08;;
57025;SDS011;43961;52.940;6.834;2023-06-10T04:37:00;3.90;;;3.03;;
57025;SDS011;43961;52.940;6.834;2023-06-10T04:39:26;4.55;;;1.60;;
57025;SDS011;43961;52.940;6.834;2023-06-10T04:41:52;2.97;;;2.72;;
57025;SDS011;43961;52.940;6.834;2023-06-10T04:44:18;5.07;;;3.33;;
57025;SDS011;43961;52.940;6.834;2023-06-10T04:46:43;4.28;;;3.88;;
57025;SDS011;43961;52.940;6.834;2023-06-10T04:49:10;2.40;;;2.22;;
57025;SDS011;43961;52.940;6.834;2023-06-10T04:51:36;4.95;;;4.47;;
57025;SDS011;43961;52.940;6.834;2023-06-10T04:54:02;6.90;;;3.45;;
57025;SDS011;43961;52.940;6.834;2023-06-10T04:56:29;3.42;;;3.15;;
57025;SDS011;43961;52.940;6.834;2023-06-10T04:58:58;4.57;;;4.15;;
57025;SDS011;43961;52.940;6.834;2023-06-10T05:01:25;5.00;;;4.40;;
57025;SDS011;43961;52.940;6.834;2023-06-10T05:03:50;6.32;;;4.50;;
57025;SDS011;43961;52.940;6.834;2023-06-10T05:06:16;5.00;;;2.92;;
57025;SDS011;43961;52.940;6.834;2023-06-10T05:08:42;4.70;;;3.63;;
57025;SDS011;43961;52.940;6.834;2023-06-10T05:11:08;2.88;;;2.47;;
57025;SDS011;43961;52.940;6.834;2023-06-10T05:13:34;3.72;;;3.40;;
57025;SDS011;43961;52.940;6.834;2023-06-10T05:16:01;5.05;;;3.95;;
57025;SDS011;43961;52.940;6.834;2023-06-10T05:18:27;3.00;;;2.80;;
57025;SDS011;43961;52.940;6.834;2023-06-10T05:20:52;3.05;;;2.85;;
57025;SDS011;43961;52.940;6.834;2023-06-10T05:23:19;6.05;;;4.43;;
57025;SDS011;43961;52.940;6.834;2023-06-10T05:25:45;3.67;;;3.38;;
57025;SDS011;43961;52.940;6.834;2023-06-10T05:28:11;4.63;;;2.08;;
57025;SDS011;43961;52.940;6.834;2023-06-10T05:30:36;6.00;;;5.47;;
57025;SDS011;43961;52.940;6.834;2023-06-10T05:33:02;4.25;;;3.67;;
57025;SDS011;43961;52.940;6.834;2023-06-10T05:35:32;5.35;;;4.53;;
57025;SDS011;43961;52.940;6.834;2023-06-10T05:37:58;4.35;;;2.85;;
57025;SDS011;43961;52.940;6.834;2023-06-10T05:40:23;3.63;;;3.40;;
57025;SDS011;43961;52.940;6.834;2023-06-10T05:42:49;4.28;;;2.15;;
57025;SDS011;43961;52.940;6.834;2023-06-10T05:45:15;2.95;;;2.65;;
57025;SDS011;43961;52.940;6.834;2023-06-10T05:47:41;5.10;;;4.13;;
57025;SDS011;43961;52.940;6.834;2023-06-10T05:53:20;7.72;;;2.72;;
57025;SDS011;43961;52.940;6.834;2023-06-10T05:55:45;3.38;;;3.08;;
57025;SDS011;43961;52.940;6.834;2023-06-10T05:58:12;3.55;;;3.25;;
57025;SDS011;43961;52.940;6.834;2023-06-10T06:00:39;3.05;;;2.60;;
57025;SDS011;43961;52.940;6.834;2023-06-10T06:28:39;1.60;;;1.50;;
57025;SDS011;43961;52.940;6.834;2023-06-10T06:31:05;1.73;;;1.60;;
57025;SDS011;43961;52.940;6.834;2023-06-10T06:33:31;2.65;;;2.30;;
57025;SDS011;43961;52.940;6.834;2023-06-10T06:35:57;1.60;;;1.50;;
57025;SDS011;43961;52.940;6.834;2023-06-10T06:38:25;1.60;;;1.40;;
57025;SDS011;43961;52.940;6.834;2023-06-10T06:40:51;2.40;;;2.20;;
57025;SDS011;43961;52.940;6.834;2023-06-10T06:43:16;1.85;;;1.75;;
57025;SDS011;43961;52.940;6.834;2023-06-10T06:45:43;3.35;;;3.13;;
57025;SDS011;43961;52.940;6.834;2023-06-10T06:48:10;2.55;;;2.35;;
57025;SDS011;43961;52.940;6.834;2023-06-10T06:50:37;3.00;;;2.80;;
57025;SDS011;43961;52.940;6.834;2023-06-10T06:53:03;2.60;;;2.45;;
57025;SDS011;43961;52.940;6.834;2023-06-10T06:55:29;2.03;;;1.90;;
57025;SDS011;43961;52.940;6.834;2023-06-10T06:57:54;3.58;;;3.22;;
57025;SDS011;43961;52.940;6.834;2023-06-10T07:00:20;1.90;;;1.73;;
57025;SDS011;43961;52.940;6.834;2023-06-10T07:02:46;2.80;;;2.60;;
57025;SDS011;43961;52.940;6.834;2023-06-10T07:05:12;3.08;;;2.88;;
57025;SDS011;43961;52.940;6.834;2023-06-10T07:07:38;5.63;;;3.65;;
57025;SDS011;43961;52.940;6.834;2023-06-10T07:10:04;2.40;;;2.20;;
57025;SDS011;43961;52.940;6.834;2023-06-10T07:12:30;2.47;;;2.28;;
57025;SDS011;43961;52.940;6.834;2023-06-10T07:14:56;3.28;;;2.97;;
57025;SDS011;43961;52.940;6.834;2023-06-10T07:17:21;4.45;;;3.85;;
57025;SDS011;43961;52.940;6.834;2023-06-10T07:19:47;5.65;;;4.15;;
57025;SDS011;43961;52.940;6.834;2023-06-10T07:22:12;2.67;;;2.47;;
57025;SDS011;43961;52.940;6.834;2023-06-10T07:24:39;3.67;;;3.30;;
57025;SDS011;43961;52.940;6.834;2023-06-10T07:27:04;5.90;;;4.13;;
57025;SDS011;43961;52.940;6.834;2023-06-10T07:29:30;3.00;;;2.47;;
57025;SDS011;43961;52.940;6.834;2023-06-10T07:31:56;2.42;;;1.73;;
57025;SDS011;43961;52.940;6.834;2023-06-10T07:34:22;2.28;;;2.17;;
57025;SDS011;43961;52.940;6.834;2023-06-10T07:36:47;4.80;;;4.32;;
57025;SDS011;43961;52.940;6.834;2023-06-10T07:39:13;3.20;;;3.00;;
57025;SDS011;43961;52.940;6.834;2023-06-10T07:41:39;2.95;;;2.65;;
57025;SDS011;43961;52.940;6.834;2023-06-10T07:44:04;1.42;;;1.33;;
57025;SDS011;43961;52.940;6.834;2023-06-10T07:46:30;1.65;;;1.55;;
57025;SDS011;43961;52.940;6.834;2023-06-10T07:48:56;2.40;;;2.28;;
57025;SDS011;43961;52.940;6.834;2023-06-10T07:51:21;3.95;;;2.60;;
57025;SDS011;43961;52.940;6.834;2023-06-10T07:53:47;2.47;;;2.30;;
57025;SDS011;43961;52.940;6.834;2023-06-10T07:56:13;3.45;;;3.13;;
57025;SDS011;43961;52.940;6.834;2023-06-10T07:58:38;3.03;;;2.83;;
57025;SDS011;43961;52.940;6.834;2023-06-10T08:01:04;2.05;;;1.88;;
57025;SDS011;43961;52.940;6.834;2023-06-10T08:03:30;4.13;;;3.13;;
57025;SDS011;43961;52.940;6.834;2023-06-10T08:05:55;4.50;;;3.60;;
57025;SDS011;43961;52.940;6.834;2023-06-10T08:08:21;1.33;;;1.33;;
57025;SDS011;43961;52.940;6.834;2023-06-10T08:10:47;2.55;;;2.25;;
57025;SDS011;43961;52.940;6.834;2023-06-10T08:13:14;3.00;;;2.72;;
57025;SDS011;43961;52.940;6.834;2023-06-10T08:15:40;2.38;;;1.70;;
57025;SDS011;43961;52.940;6.834;2023-06-10T08:18:05;4.85;;;2.03;;
57025;SDS011;43961;52.940;6.834;2023-06-10T08:20:31;2.55;;;2.35;;
57025;SDS011;43961;52.940;6.834;2023-06-10T08:22:57;2.33;;;2.13;;
57025;SDS011;43961;52.940;6.834;2023-06-10T08:25:23;2.30;;;2.17;;
57025;SDS011;43961;52.940;6.834;2023-06-10T08:27:48;2.80;;;2.58;;
57025;SDS011;43961;52.940;6.834;2023-06-10T08:30:15;1.95;;;1.85;;
57025;SDS011;43961;52.940;6.834;2023-06-10T08:32:41;1.88;;;1.80;;
57025;SDS011;43961;52.940;6.834;2023-06-10T08:35:07;2.47;;;2.28;;
57025;SDS011;43961;52.940;6.834;2023-06-10T08:37:33;3.10;;;2.25;;
57025;SDS011;43961;52.940;6.834;2023-06-10T08:39:58;3.40;;;3.13;;
57025;SDS011;43961;52.940;6.834;2023-06-10T08:42:27;3.22;;;2.33;;
57025;SDS011;43961;52.940;6.834;2023-06-10T08:44:58;3.42;;;3.20;;
57025;SDS011;43961;52.940;6.834;2023-06-10T08:47:28;5.55;;;3.10;;
57025;SDS011;43961;52.940;6.834;2023-06-10T08:50:02;2.75;;;1.77;;
57025;SDS011;43961;52.940;6.834;2023-06-10T08:52:29;1.02;;;1.02;;
57025;SDS011;43961;52.940;6.834;2023-06-10T08:55:03;4.18;;;2.70;;
57025;SDS011;43961;52.940;6.834;2023-06-10T08:57:30;7.63;;;6.75;;
57025;SDS011;43961;52.940;6.834;2023-06-10T08:59:56;4.57;;;4.28;;
57025;SDS011;43961;52.940;6.834;2023-06-10T09:02:23;2.95;;;2.72;;
57025;SDS011;43961;52.940;6.834;2023-06-10T09:04:50;3.03;;;2.70;;
57025;SDS011;43961;52.940;6.834;2023-06-10T09:07:16;2.03;;;1.92;;
57025;SDS011;43961;52.940;6.834;2023-06-10T09:09:43;25.23;;;17.50;;
57025;SDS011;43961;52.940;6.834;2023-06-10T09:12:10;16.52;;;15.07;;
57025;SDS011;43961;52.940;6.834;2023-06-10T09:14:37;12.68;;;11.65;;
57025;SDS011;43961;52.940;6.834;2023-06-10T09:17:03;9.10;;;8.43;;
57025;SDS011;43961;52.940;6.834;2023-06-10T09:19:30;6.85;;;6.32;;
57025;SDS011;43961;52.940;6.834;2023-06-10T09:21:56;4.88;;;4.47;;
57025;SDS011;43961;52.940;6.834;2023-06-10T09:24:22;3.63;;;3.35;;
57025;SDS011;43961;52.940;6.834;2023-06-10T09:26:48;2.60;;;2.13;;
57025;SDS011;43961;52.940;6.834;2023-06-10T09:29:16;3.55;;;3.25;;
57025;SDS011;43961;52.940;6.834;2023-06-10T09:31:43;2.25;;;2.15;;
57025;SDS011;43961;52.940;6.834;2023-06-10T09:34:15;3.30;;;3.05;;
57025;SDS011;43961;52.940;6.834;2023-06-10T09:36:42;1.38;;;1.38;;
57025;SDS011;43961;52.940;6.834;2023-06-10T09:39:16;2.33;;;2.20;;
57025;SDS011;43961;52.940;6.834;2023-06-10T09:41:43;4.43;;;2.58;;
57025;SDS011;43961;52.940;6.834;2023-06-10T09:44:13;2.47;;;2.28;;
57025;SDS011;43961;52.940;6.834;2023-06-10T09:46:48;2.15;;;1.65;;
57025;SDS011;43961;52.940;6.834;2023-06-10T09:49:18;3.75;;;2.67;;
57025;SDS011;43961;52.940;6.834;2023-06-10T09:51:53;1.42;;;1.33;;
57025;SDS011;43961;52.940;6.834;2023-06-10T09:54:20;1.83;;;1.73;;
57025;SDS011;43961;52.940;6.834;2023-06-10T09:56:47;3.57;;;2.70;;
57025;SDS011;43961;52.940;6.834;2023-06-10T09:59:13;3.72;;;2.28;;
57025;SDS011;43961;52.940;6.834;2023-06-10T10:01:39;6.15;;;1.52;;
57025;SDS011;43961;52.940;6.834;2023-06-10T10:04:05;2.25;;;1.83;;
57025;SDS011;43961;52.940;6.834;2023-06-10T10:06:31;1.45;;;1.35;;
57025;SDS011;43961;52.940;6.834;2023-06-10T10:08:56;1.33;;;1.23;;
57025;SDS011;43961;52.940;6.834;2023-06-10T10:11:22;2.17;;;2.05;;
57025;SDS011;43961;52.940;6.834;2023-06-10T10:13:51;1.75;;;1.65;;
57025;SDS011;43961;52.940;6.834;2023-06-10T10:16:21;1.63;;;1.58;;
57025;SDS011;43961;52.940;6.834;2023-06-10T10:18:57;2.15;;;2.05;;
57025;SDS011;43961;52.940;6.834;2023-06-10T10:21:27;7.10;;;2.50;;
57025;SDS011;43961;52.940;6.834;2023-06-10T10:24:12;1.35;;;1.15;;
57025;SDS011;43961;52.940;6.834;2023-06-10T10:26:46;5.63;;;2.63;;
57025;SDS011;43961;52.940;6.834;2023-06-10T10:31:50;3.45;;;2.28;;
57025;SDS011;43961;52.940;6.834;2023-06-10T10:34:21;3.60;;;3.30;;
57025;SDS011;43961;52.940;6.834;2023-06-10T10:36:53;1.85;;;1.42;;
57025;SDS011;43961;52.940;6.834;2023-06-10T10:39:19;1.80;;;1.33;;
57025;SDS011;43961;52.940;6.834;2023-06-10T10:41:46;2.08;;;1.95;;
57025;SDS011;43961;52.940;6.834;2023-06-10T10:44:12;1.27;;;1.27;;
57025;SDS011;43961;52.940;6.834;2023-06-10T10:46:41;1.15;;;1.15;;
57025;SDS011;43961;52.940;6.834;2023-06-10T10:49:08;3.90;;;2.17;;
57025;SDS011;43961;52.940;6.834;2023-06-10T10:51:35;1.33;;;1.27;;
57025;SDS011;43961;52.940;6.834;2023-06-10T10:54:14;1.58;;;1.48;;
57025;SDS011;43961;52.940;6.834;2023-06-10T10:57:09;0.93;;;0.90;;
57025;SDS011;43961;52.940;6.834;2023-06-10T10:59:45;1.10;;;1.08;;
57025;SDS011;43961;52.940;6.834;2023-06-10T11:02:17;0.88;;;0.85;;
57025;SDS011;43961;52.940;6.834;2023-06-10T11:04:44;0.98;;;0.85;;
57025;SDS011;43961;52.940;6.834;2023-06-10T11:07:11;1.35;;;1.10;;
57025;SDS011;43961;52.940;6.834;2023-06-10T11:09:57;1.63;;;1.52;;
57025;SDS011;43961;52.940;6.834;2023-06-10T11:12:23;1.63;;;1.52;;
57025;SDS011;43961;52.940;6.834;2023-06-10T11:14:58;0.93;;;0.93;;
57025;SDS011;43961;52.940;6.834;2023-06-10T11:17:24;2.47;;;2.28;;
57025;SDS011;43961;52.940;6.834;2023-06-10T11:19:50;8.90;;;1.95;;
57025;SDS011;43961;52.940;6.834;2023-06-10T11:22:16;1.23;;;1.17;;
57025;SDS011;43961;52.940;6.834;2023-06-10T11:24:49;1.38;;;1.13;;
57025;SDS011;43961;52.940;6.834;2023-06-10T11:27:19;1.30;;;1.30;;
57025;SDS011;43961;52.940;6.834;2023-06-10T11:32:45;3.05;;;2.65;;
57025;SDS011;43961;52.940;6.834;2023-06-10T11:35:16;1.58;;;1.48;;
57025;SDS011;43961;52.940;6.834;2023-06-10T11:37:43;1.42;;;1.33;;
57025;SDS011;43961;52.940;6.834;2023-06-10T11:40:10;1.55;;;1.45;;
57025;SDS011;43961;52.940;6.834;2023-06-10T11:42:40;1.05;;;1.02;;
57025;SDS011;43961;52.940;6.834;2023-06-10T11:45:07;1.50;;;1.40;;
57025;SDS011;43961;52.940;6.834;2023-06-10T11:47:33;0.50;;;0.50;;
57025;SDS011;43961;52.940;6.834;2023-06-10T11:49:59;2.50;;;2.08;;
57025;SDS011;43961;52.940;6.834;2023-06-10T11:52:31;2.53;;;2.33;;
57025;SDS011;43961;52.940;6.834;2023-06-10T11:54:58;2.65;;;2.53;;
57025;SDS011;43961;52.940;6.834;2023-06-10T11:57:24;2.00;;;1.90;;
57025;SDS011;43961;52.940;6.834;2023-06-10T11:59:50;1.63;;;1.52;;
57025;SDS011;43961;52.940;6.834;2023-06-10T12:02:16;1.02;;;1.02;;
57025;SDS011;43961;52.940;6.834;2023-06-10T12:04:45;2.17;;;2.05;;
57025;SDS011;43961;52.940;6.834;2023-06-10T12:07:16;2.40;;;2.10;;
57025;SDS011;43961;52.940;6.834;2023-06-10T12:09:44;1.02;;;1.02;;
57025;SDS011;43961;52.940;6.834;2023-06-10T12:12:10;1.20;;;1.13;;
57025;SDS011;43961;52.940;6.834;2023-06-10T12:19:57;2.00;;;1.52;;
57025;SDS011;43961;52.940;6.834;2023-06-10T12:22:23;1.13;;;1.13;;
57025;SDS011;43961;52.940;6.834;2023-06-10T12:24:59;1.75;;;1.65;;
57025;SDS011;43961;52.940;6.834;2023-06-10T12:27:30;4.15;;;2.00;;
57025;SDS011;43961;52.940;6.834;2023-06-10T12:29:56;1.48;;;1.38;;
57025;SDS011;43961;52.940;6.834;2023-06-10T12:32:34;2.13;;;1.92;;
57025;SDS011;43961;52.940;6.834;2023-06-10T12:35:04;1.20;;;1.20;;
57025;SDS011;43961;52.940;6.834;2023-06-10T12:37:31;1.10;;;1.08;;
57025;SDS011;43961;52.940;6.834;2023-06-10T12:40:02;1.63;;;1.52;;
57025;SDS011;43961;52.940;6.834;2023-06-10T12:42:29;3.25;;;2.65;;
57025;SDS011;43961;52.940;6.834;2023-06-10T12:44:56;1.67;;;1.48;;
57025;SDS011;43961;52.940;6.834;2023-06-10T12:47:30;1.00;;;1.00;;
57025;SDS011;43961;52.940;6.834;2023-06-10T12:50:00;1.67;;;1.58;;
57025;SDS011;43961;52.940;6.834;2023-06-10T12:52:28;0.70;;;0.70;;
57025;SDS011;43961;52.940;6.834;2023-06-10T12:54:54;2.00;;;1.88;;
57025;SDS011;43961;52.940;6.834;2023-06-10T12:57:23;2.88;;;2.42;;
57025;SDS011;43961;52.940;6.834;2023-06-10T12:59:48;2.25;;;0.90;;
57025;SDS011;43961;52.940;6.834;2023-06-10T13:02:20;2.88;;;2.67;;
57025;SDS011;43961;52.940;6.834;2023-06-10T13:04:48;2.28;;;1.95;;
57025;SDS011;43961;52.940;6.834;2023-06-10T13:07:15;2.07;;;1.97;;
57025;SDS011;43961;52.940;6.834;2023-06-10T13:09:41;2.97;;;2.78;;
57025;SDS011;43961;52.940;6.834;2023-06-10T13:12:08;0.90;;;0.85;;
57025;SDS011;43961;52.940;6.834;2023-06-10T13:14:35;2.33;;;1.98;;
57025;SDS011;43961;52.940;6.834;2023-06-10T13:17:04;2.53;;;2.33;;
57025;SDS011;43961;52.940;6.834;2023-06-10T13:19:33;1.90;;;1.58;;
57025;SDS011;43961;52.940;6.834;2023-06-10T13:21:58;2.13;;;2.00;;
57025;SDS011;43961;52.940;6.834;2023-06-10T13:24:24;2.08;;;1.88;;
57025;SDS011;43961;52.940;6.834;2023-06-10T13:26:51;3.28;;;2.53;;
57025;SDS011;43961;52.940;6.834;2023-06-10T13:29:17;2.33;;;2.13;;
57025;SDS011;43961;52.940;6.834;2023-06-10T13:31:42;1.20;;;1.17;;
57025;SDS011;43961;52.940;6.834;2023-06-10T13:34:08;1.15;;;1.15;;
57025;SDS011;43961;52.940;6.834;2023-06-10T13:36:34;2.85;;;1.92;;
57025;SDS011;43961;52.940;6.834;2023-06-10T13:39:00;3.20;;;2.83;;
57025;SDS011;43961;52.940;6.834;2023-06-10T13:41:26;1.15;;;1.15;;
57025;SDS011;43961;52.940;6.834;2023-06-10T13:43:54;0.95;;;0.95;;
57025;SDS011;43961;52.940;6.834;2023-06-10T13:46:20;0.55;;;0.55;;
57025;SDS011;43961;52.940;6.834;2023-06-10T13:48:47;3.45;;;3.20;;
57025;SDS011;43961;52.940;6.834;2023-06-10T13:51:13;0.85;;;0.85;;
57025;SDS011;43961;52.940;6.834;2023-06-10T13:53:38;0.55;;;0.50;;
57025;SDS011;43961;52.940;6.834;2023-06-10T13:56:04;1.10;;;1.10;;
57025;SDS011;43961;52.940;6.834;2023-06-10T13:58:30;1.35;;;1.33;;
57025;SDS011;43961;52.940;6.834;2023-06-10T14:00:56;1.40;;;1.33;;
57025;SDS011;43961;52.940;6.834;2023-06-10T14:03:23;1.35;;;1.35;;
57025;SDS011;43961;52.940;6.834;2023-06-10T14:05:49;2.13;;;1.95;;
57025;SDS011;43961;52.940;6.834;2023-06-10T14:08:15;0.88;;;0.88;;
57025;SDS011;43961;52.940;6.834;2023-06-10T14:10:40;1.50;;;1.40;;
57025;SDS011;43961;52.940;6.834;2023-06-10T14:13:06;0.80;;;0.80;;
57025;SDS011;43961;52.940;6.834;2023-06-10T14:15:32;1.20;;;1.08;;
57025;SDS011;43961;52.940;6.834;2023-06-10T14:17:57;1.30;;;1.20;;
57025;SDS011;43961;52.940;6.834;2023-06-10T14:20:31;2.03;;;1.85;;
57025;SDS011;43961;52.940;6.834;2023-06-10T14:23:00;0.90;;;0.90;;
57025;SDS011;43961;52.940;6.834;2023-06-10T14:27:55;5.45;;;1.25;;
57025;SDS011;43961;52.940;6.834;2023-06-10T14:30:22;1.50;;;1.40;;
57025;SDS011;43961;52.940;6.834;2023-06-10T14:32:48;0.70;;;0.70;;
57025;SDS011;43961;52.940;6.834;2023-06-10T14:35:13;2.03;;;1.60;;
57025;SDS011;43961;52.940;6.834;2023-06-10T14:37:39;2.58;;;1.70;;
57025;SDS011;43961;52.940;6.834;2023-06-10T14:40:05;1.58;;;1.48;;
57025;SDS011;43961;52.940;6.834;2023-06-10T14:42:31;11.45;;;1.17;;
57025;SDS011;43961;52.940;6.834;2023-06-10T14:44:57;2.53;;;1.90;;
57025;SDS011;43961;52.940;6.834;2023-06-10T14:47:23;1.25;;;1.15;;
57025;SDS011;43961;52.940;6.834;2023-06-10T14:49:49;0.82;;;0.82;;
57025;SDS011;43961;52.940;6.834;2023-06-10T14:52:15;2.90;;;2.35;;
57025;SDS011;43961;52.940;6.834;2023-06-10T14:54:41;1.25;;;1.15;;
57025;SDS011;43961;52.940;6.834;2023-06-10T14:57:06;1.30;;;0.98;;
57025;SDS011;43961;52.940;6.834;2023-06-10T14:59:33;2.15;;;1.48;;
57025;SDS011;43961;52.940;6.834;2023-06-10T15:01:59;4.05;;;2.75;;
57025;SDS011;43961;52.940;6.834;2023-06-10T15:04:26;1.63;;;1.53;;
57025;SDS011;43961;52.940;6.834;2023-06-10T15:06:52;1.67;;;1.57;;
57025;SDS011;43961;52.940;6.834;2023-06-10T15:09:18;3.92;;;3.22;;
57025;SDS011;43961;52.940;6.834;2023-06-10T15:11:46;2.75;;;1.05;;
57025;SDS011;43961;52.940;6.834;2023-06-10T15:14:12;1.27;;;1.27;;
57025;SDS011;43961;52.940;6.834;2023-06-10T15:16:38;1.52;;;1.42;;
57025;SDS011;43961;52.940;6.834;2023-06-10T15:19:03;1.05;;;1.05;;
57025;SDS011;43961;52.940;6.834;2023-06-10T15:21:31;3.45;;;1.95;;
57025;SDS011;43961;52.940;6.834;2023-06-10T15:23:57;1.55;;;1.45;;
57025;SDS011;43961;52.940;6.834;2023-06-10T15:26:23;1.63;;;1.52;;
57025;SDS011;43961;52.940;6.834;2023-06-10T15:28:48;1.05;;;1.05;;
57025;SDS011;43961;52.940;6.834;2023-06-10T15:31:14;0.60;;;0.60;;